Terminal Aerodrome Forecast
Issued by NWS

Home | Current Version | Previous Version | Text Only | Print | Product List | Glossary On
Versions: 1 2 3 4 5 6 7 8 9 10 11 12
000
FTUS46 KSEW 211100
TAFBLI
TAF
KBLI 211120Z 2112/2212 VRB04KT P6SM SCT060 BKN150
     FM211900 29006KT P6SM SCT060 BKN100
     FM220100 30006KT P6SM -SHRA BKN035 BKN050
     FM220400 18005KT P6SM -SHRA BKN035 OVC050
     FM221000 18006KT P6SM VCSH BKN035 BKN050=

USA.gov is the U.S. government's official web portal to all federal, state and local government web resources and services.